createdAt,value
2022-10-18T00:02:20.183Z,3.90
2022-10-18T00:04:47.165Z,3.78
2022-10-18T00:07:13.894Z,3.40
2022-10-18T00:09:40.801Z,3.20
2022-10-18T00:12:08.187Z,3.58
2022-10-18T00:14:35.114Z,3.88
2022-10-18T00:17:01.894Z,4.40
2022-10-18T00:19:29.483Z,3.70
2022-10-18T00:21:56.558Z,3.38
2022-10-18T00:24:23.319Z,3.88
2022-10-18T00:26:50.072Z,4.43
2022-10-18T00:29:17.177Z,3.92
2022-10-18T00:31:44.608Z,4.15
2022-10-18T00:34:14.078Z,4.72
2022-10-18T00:36:41.645Z,3.83
2022-10-18T00:39:12.052Z,4.05
2022-10-18T00:41:38.920Z,4.13
2022-10-18T00:44:10.932Z,4.38
2022-10-18T00:46:39.970Z,4.78
2022-10-18T00:49:19.108Z,4.68
2022-10-18T00:52:21.400Z,4.68
2022-10-18T00:54:49.691Z,4.20
2022-10-18T00:57:17.151Z,4.18
2022-10-18T00:59:45.425Z,4.35
2022-10-18T01:02:15.013Z,4.65
2022-10-18T01:04:41.855Z,4.68
2022-10-18T01:07:17.372Z,4.90
2022-10-18T01:09:59.290Z,4.38
2022-10-18T01:12:52.111Z,4.88
2022-10-18T01:15:36.534Z,4.35
2022-10-18T01:18:20.467Z,4.28
2022-10-18T01:20:47.153Z,4.03
2022-10-18T01:23:40.840Z,4.13
2022-10-18T01:26:17.378Z,3.83
2022-10-18T01:28:44.128Z,4.13
2022-10-18T01:31:17.063Z,4.18
2022-10-18T01:33:58.444Z,3.65
2022-10-18T01:36:37.830Z,3.78
2022-10-18T01:39:09.663Z,3.60
2022-10-18T01:41:38.669Z,3.75
2022-10-18T01:44:09.729Z,3.03
2022-10-18T01:46:38.640Z,2.95
2022-10-18T01:49:05.677Z,3.53
2022-10-18T01:51:33.436Z,3.20
2022-10-18T01:54:00.662Z,3.15
2022-10-18T01:56:54.861Z,2.97
2022-10-18T01:59:39.567Z,3.38
2022-10-18T02:02:27.931Z,3.67
2022-10-18T02:05:03.422Z,3.03
2022-10-18T02:08:00.182Z,3.33
2022-10-18T02:10:46.291Z,2.85
2022-10-18T02:13:21.971Z,3.05
2022-10-18T02:15:52.059Z,2.90
2022-10-18T02:18:24.380Z,3.10
2022-10-18T02:20:51.928Z,3.33
2022-10-18T02:23:23.053Z,3.20
2022-10-18T02:25:50.596Z,3.78
2022-10-18T02:28:17.460Z,3.53
2022-10-18T02:30:57.690Z,2.80
2022-10-18T02:33:38.270Z,2.70
2022-10-18T02:36:15.105Z,2.30
2022-10-18T02:38:43.756Z,1.48
2022-10-18T02:41:10.570Z,1.60
2022-10-18T02:43:37.357Z,1.90
2022-10-18T02:46:04.317Z,1.38
2022-10-18T02:48:31.098Z,1.92
2022-10-18T02:50:57.789Z,1.80
2022-10-18T02:53:24.535Z,1.73
2022-10-18T02:55:51.242Z,1.60
2022-10-18T02:58:17.947Z,2.10
2022-10-18T03:00:44.617Z,1.73
2022-10-18T03:03:11.346Z,1.52
2022-10-18T03:05:38.086Z,1.70
2022-10-18T03:08:04.969Z,1.60
2022-10-18T03:10:31.707Z,1.60
2022-10-18T03:12:58.408Z,1.83
2022-10-18T03:15:25.255Z,1.77
2022-10-18T03:17:52.078Z,1.38
2022-10-18T03:20:19.706Z,1.65
2022-10-18T03:22:46.531Z,1.30
2022-10-18T03:25:13.276Z,1.30
2022-10-18T03:27:39.974Z,1.63
2022-10-18T03:30:08.511Z,1.55
2022-10-18T03:32:35.446Z,1.70
2022-10-18T03:35:02.406Z,1.33
2022-10-18T03:37:29.135Z,1.80
2022-10-18T03:39:55.891Z,1.63
2022-10-18T03:42:22.923Z,1.70
2022-10-18T03:44:49.797Z,2.10
2022-10-18T03:47:16.510Z,1.67
2022-10-18T03:49:43.203Z,1.83
2022-10-18T03:52:10.040Z,1.73
2022-10-18T03:54:36.984Z,1.60
2022-10-18T03:57:03.828Z,1.90
2022-10-18T03:59:30.549Z,1.80
2022-10-18T04:01:57.343Z,2.10
2022-10-18T04:04:24.191Z,1.90
2022-10-18T04:06:50.907Z,2.25
2022-10-18T04:09:17.801Z,1.90
2022-10-18T04:11:44.519Z,1.88
2022-10-18T04:14:11.227Z,2.47
2022-10-18T04:16:37.917Z,1.88
2022-10-18T04:19:04.761Z,1.88
2022-10-18T04:21:31.473Z,1.83
2022-10-18T04:23:58.169Z,1.80
2022-10-18T04:26:24.919Z,2.28
2022-10-18T04:28:51.701Z,2.20
2022-10-18T04:31:18.517Z,2.08
2022-10-18T04:33:45.307Z,2.58
2022-10-18T04:36:12.026Z,2.10
2022-10-18T04:38:38.772Z,2.00
2022-10-18T04:41:05.620Z,2.17
2022-10-18T04:43:32.402Z,2.10
2022-10-18T04:45:59.152Z,2.13
2022-10-18T04:48:25.932Z,2.13
2022-10-18T04:50:52.752Z,2.13
2022-10-18T04:53:20.059Z,2.08
2022-10-18T04:55:50.500Z,2.38
2022-10-18T04:58:18.509Z,1.85
2022-10-18T05:00:45.896Z,1.85
2022-10-18T05:03:13.853Z,1.67
2022-10-18T05:05:57.169Z,1.90
2022-10-18T05:08:27.947Z,1.52
2022-10-18T05:10:54.720Z,2.35
2022-10-18T05:13:21.510Z,1.80
2022-10-18T05:15:48.225Z,1.65
2022-10-18T05:18:14.956Z,1.90
2022-10-18T05:20:41.752Z,2.05
2022-10-18T05:23:10.772Z,2.10
2022-10-18T05:25:43.950Z,2.13
2022-10-18T05:28:34.077Z,2.20
2022-10-18T05:31:04.771Z,1.77
2022-10-18T05:33:31.835Z,1.80
2022-10-18T05:35:58.892Z,2.75
2022-10-18T05:38:25.829Z,2.65
2022-10-18T05:40:52.633Z,2.97
2022-10-18T05:43:19.430Z,2.40
2022-10-18T05:45:50.891Z,3.13
2022-10-18T05:48:18.386Z,2.60
2022-10-18T05:50:45.615Z,3.00
2022-10-18T05:53:24.667Z,3.28
2022-10-18T05:56:02.657Z,3.42
2022-10-18T05:58:29.543Z,2.67
2022-10-18T06:01:01.738Z,2.65
2022-10-18T06:03:30.565Z,3.08
2022-10-18T06:06:09.341Z,3.10
2022-10-18T06:08:37.396Z,3.33
2022-10-18T06:11:16.323Z,3.97
2022-10-18T06:13:45.290Z,3.80
2022-10-18T06:16:13.840Z,3.55
2022-10-18T06:18:41.184Z,3.72
2022-10-18T06:21:08.195Z,3.53
2022-10-18T06:23:34.983Z,3.78
2022-10-18T06:26:04.485Z,4.20
2022-10-18T06:28:31.606Z,4.55
2022-10-18T06:30:58.475Z,4.45
2022-10-18T06:33:25.516Z,3.88
2022-10-18T06:36:00.336Z,3.97
2022-10-18T06:38:28.279Z,4.13
2022-10-18T06:40:56.042Z,4.00
2022-10-18T06:43:23.634Z,3.70
2022-10-18T06:45:51.074Z,4.25
2022-10-18T06:50:57.489Z,3.35
2022-10-18T06:53:32.428Z,3.50
2022-10-18T06:56:01.690Z,2.80
2022-10-18T06:58:29.497Z,3.25
2022-10-18T07:00:56.668Z,3.05
2022-10-18T07:03:23.762Z,3.10
2022-10-18T07:05:51.022Z,2.85
2022-10-18T07:08:18.440Z,2.58
2022-10-18T07:10:53.096Z,2.58
2022-10-18T07:13:31.903Z,2.95
2022-10-18T07:16:02.458Z,2.85
2022-10-18T07:18:29.387Z,2.10
2022-10-18T07:20:56.113Z,1.95
2022-10-18T07:23:23.868Z,2.15
2022-10-18T07:25:51.092Z,2.83
2022-10-18T07:28:17.908Z,2.67
2022-10-18T07:30:44.829Z,2.30
2022-10-18T07:33:11.589Z,2.55
2022-10-18T07:35:38.369Z,2.38
2022-10-18T07:38:05.109Z,3.42
2022-10-18T07:40:31.821Z,3.20
2022-10-18T07:43:00.652Z,3.50
2022-10-18T07:45:31.916Z,3.60
2022-10-18T07:47:58.806Z,3.75
2022-10-18T07:50:25.697Z,3.85
2022-10-18T07:52:52.417Z,3.88
2022-10-18T07:55:19.087Z,3.38
2022-10-18T07:57:45.829Z,2.92
2022-10-18T08:00:12.925Z,2.30
2022-10-18T08:02:39.625Z,1.88
2022-10-18T08:05:06.810Z,1.95
2022-10-18T08:07:34.059Z,3.22
2022-10-18T08:10:01.118Z,1.80
2022-10-18T08:12:27.966Z,1.00
2022-10-18T08:14:54.647Z,1.10
2022-10-18T08:17:21.378Z,0.98
2022-10-18T08:19:58.385Z,1.20
2022-10-18T08:22:34.978Z,1.25
2022-10-18T08:25:01.774Z,1.20
2022-10-18T08:27:28.477Z,1.10
2022-10-18T08:29:55.204Z,1.45
2022-10-18T08:32:21.966Z,1.48
2022-10-18T08:34:48.701Z,1.17
2022-10-18T08:37:15.718Z,1.30
2022-10-18T08:39:42.381Z,1.40
2022-10-18T08:42:12.125Z,1.58
2022-10-18T08:44:45.646Z,1.20
2022-10-18T08:47:17.520Z,1.23
2022-10-18T08:49:47.435Z,1.27
2022-10-18T08:52:26.287Z,1.10
2022-10-18T08:55:05.118Z,1.40
2022-10-18T08:57:33.093Z,1.27
2022-10-18T09:00:01.482Z,1.05
2022-10-18T09:02:47.038Z,1.20
2022-10-18T09:05:38.980Z,1.10
2022-10-18T09:08:43.186Z,1.33
2022-10-18T09:11:28.736Z,1.30
2022-10-18T09:14:20.473Z,1.30
2022-10-18T09:17:15.851Z,1.20
2022-10-18T09:19:55.057Z,0.90
2022-10-18T09:22:48.067Z,1.02
2022-10-18T09:25:20.911Z,2.95
2022-10-18T09:27:52.329Z,7.82
2022-10-18T09:30:59.882Z,1.65
2022-10-18T09:33:56.263Z,1.13
2022-10-18T09:36:38.625Z,1.08
2022-10-18T09:39:15.208Z,1.60
2022-10-18T09:41:49.863Z,1.30
2022-10-18T09:44:24.232Z,1.30
2022-10-18T09:47:03.034Z,1.13
2022-10-18T09:49:34.213Z,1.35
2022-10-18T09:52:07.810Z,1.50
2022-10-18T09:54:43.063Z,1.58
2022-10-18T09:57:35.710Z,1.60
2022-10-18T10:00:05.076Z,1.63
2022-10-18T10:02:31.986Z,1.73
2022-10-18T10:04:58.808Z,1.48
2022-10-18T10:07:31.091Z,1.70
2022-10-18T10:10:22.171Z,2.40
2022-10-18T10:13:02.135Z,1.80
2022-10-18T10:15:33.131Z,1.97
2022-10-18T10:18:31.001Z,1.58
2022-10-18T10:21:00.788Z,3.13
2022-10-18T10:23:32.438Z,14.98
2022-10-18T10:26:38.879Z,3.63
2022-10-18T10:29:47.475Z,2.05
2022-10-18T10:32:17.234Z,2.15
2022-10-18T10:34:45.155Z,1.73
2022-10-18T10:37:33.354Z,2.25
2022-10-18T10:40:17.767Z,1.98
2022-10-18T10:43:08.929Z,2.03
2022-10-18T10:46:06.411Z,2.30
2022-10-18T10:48:46.624Z,1.80
2022-10-18T10:51:16.281Z,2.58
2022-10-18T10:53:46.115Z,2.72
2022-10-18T10:56:29.561Z,2.25
2022-10-18T10:59:01.112Z,2.58
2022-10-18T11:01:33.132Z,3.03
2022-10-18T11:04:03.328Z,3.78
2022-10-18T11:06:55.728Z,3.72
2022-10-18T11:10:02.657Z,3.72
2022-10-18T11:12:43.197Z,3.42
2022-10-18T11:15:10.673Z,3.45
2022-10-18T11:17:46.909Z,3.75
2022-10-18T11:20:17.509Z,3.90
2022-10-18T11:22:56.484Z,3.25
2022-10-18T11:25:29.092Z,3.22
2022-10-18T11:28:04.186Z,3.20
2022-10-18T11:30:49.957Z,3.35
2022-10-18T11:34:03.549Z,3.75
2022-10-18T11:36:56.145Z,3.42
2022-10-18T11:39:26.374Z,3.78
2022-10-18T11:42:05.183Z,3.60
2022-10-18T11:44:34.811Z,3.35
2022-10-18T11:47:07.768Z,3.50
2022-10-18T11:50:13.887Z,2.67
2022-10-18T11:52:56.883Z,3.13
2022-10-18T11:55:32.778Z,2.53
2022-10-18T11:58:21.875Z,2.72
2022-10-18T12:01:16.161Z,2.88
2022-10-18T12:04:17.827Z,2.90
2022-10-18T12:06:47.669Z,2.30
2022-10-18T12:09:32.870Z,2.78
2022-10-18T12:12:11.288Z,2.47
2022-10-18T12:14:44.723Z,2.40
2022-10-18T12:17:42.870Z,3.05
2022-10-18T12:20:33.287Z,3.60
2022-10-18T12:23:11.338Z,3.65
2022-10-18T12:25:41.845Z,2.92
2022-10-18T12:28:25.817Z,3.40
2022-10-18T12:31:08.626Z,4.22
2022-10-18T12:33:50.938Z,3.58
2022-10-18T12:36:42.423Z,3.67
2022-10-18T12:39:27.293Z,4.35
2022-10-18T12:42:04.980Z,3.45
2022-10-18T12:44:34.176Z,3.42
2022-10-18T12:47:03.401Z,3.50
2022-10-18T12:49:35.554Z,3.42
2022-10-18T12:52:19.342Z,3.72
2022-10-18T12:55:01.549Z,4.05
2022-10-18T12:57:54.040Z,4.10
2022-10-18T13:00:29.765Z,3.30
2022-10-18T13:03:17.811Z,4.80
2022-10-18T13:05:56.070Z,2.88
2022-10-18T13:08:29.247Z,3.08
2022-10-18T13:11:01.953Z,3.67
2022-10-18T13:13:44.060Z,3.28
2022-10-18T13:16:22.901Z,3.35
2022-10-18T13:19:30.606Z,3.42
2022-10-18T13:22:12.149Z,3.42
2022-10-18T13:25:05.206Z,3.35
2022-10-18T13:27:48.186Z,3.70
2022-10-18T13:30:51.033Z,3.17
2022-10-18T13:33:34.899Z,3.05
2022-10-18T13:36:04.025Z,3.17
2022-10-18T13:38:48.754Z,2.90
2022-10-18T13:43:57.318Z,4.00
2022-10-18T13:46:32.985Z,3.40
2022-10-18T13:49:20.133Z,3.22
2022-10-18T13:52:08.836Z,3.17
2022-10-18T13:54:56.689Z,2.83
2022-10-18T13:57:34.748Z,3.78
2022-10-18T14:00:13.488Z,3.65
2022-10-18T14:02:52.989Z,3.38
2022-10-18T14:06:01.757Z,3.38
2022-10-18T14:08:36.503Z,3.88
2022-10-18T14:11:05.405Z,3.30
2022-10-18T14:13:41.872Z,3.55
2022-10-18T14:16:38.659Z,3.28
2022-10-18T14:19:37.637Z,3.42
2022-10-18T14:22:11.404Z,3.25
2022-10-18T14:24:43.527Z,3.55
2022-10-18T14:27:33.013Z,3.15
2022-10-18T14:30:17.208Z,3.33
2022-10-18T14:32:49.710Z,4.03
2022-10-18T14:35:32.200Z,2.95
2022-10-18T14:37:59.647Z,3.38
2022-10-18T14:40:31.020Z,3.20
2022-10-18T14:43:21.771Z,4.07
2022-10-18T14:45:48.588Z,4.25
2022-10-18T14:48:23.477Z,3.25
2022-10-18T14:51:00.108Z,3.30
2022-10-18T14:53:32.522Z,3.50
2022-10-18T14:56:01.670Z,3.33
2022-10-18T14:58:28.623Z,3.83
2022-10-18T15:00:55.915Z,3.88
2022-10-18T15:03:23.475Z,3.78
2022-10-18T15:05:59.382Z,4.03
2022-10-18T15:08:38.290Z,3.85
2022-10-18T15:11:10.470Z,3.75
2022-10-18T15:13:50.414Z,4.05
2022-10-18T15:16:19.944Z,3.63
2022-10-18T15:18:59.561Z,4.32
2022-10-18T15:21:26.350Z,4.15
2022-10-18T15:23:54.913Z,4.20
2022-10-18T15:26:26.678Z,4.57
2022-10-18T15:28:56.401Z,4.45
2022-10-18T15:31:35.782Z,4.55
2022-10-18T15:34:15.253Z,4.50
2022-10-18T15:39:23.784Z,4.57
2022-10-18T15:41:52.903Z,4.80
2022-10-18T15:44:32.075Z,4.30
2022-10-18T15:47:16.044Z,3.88
2022-10-18T15:49:45.510Z,5.90
2022-10-18T15:52:36.673Z,5.15
2022-10-18T15:55:32.883Z,5.47
2022-10-18T15:58:11.074Z,5.13
2022-10-18T16:00:37.826Z,4.88
2022-10-18T16:03:04.606Z,5.28
2022-10-18T16:05:32.699Z,5.55
2022-10-18T16:07:59.437Z,5.05
2022-10-18T16:10:26.221Z,5.63
2022-10-18T16:15:20.248Z,6.03
2022-10-18T16:17:47.825Z,5.35
2022-10-18T16:20:23.389Z,5.28
2022-10-18T16:22:50.338Z,5.35
2022-10-18T16:25:17.327Z,5.70
2022-10-18T16:27:44.263Z,6.20
2022-10-18T16:30:18.427Z,6.80
2022-10-18T16:32:46.420Z,5.38
2022-10-18T16:35:13.414Z,7.07
2022-10-18T16:37:40.253Z,5.75
2022-10-18T16:40:36.548Z,6.70
2022-10-18T16:43:05.667Z,6.97
2022-10-18T16:45:32.390Z,5.53
2022-10-18T16:47:59.122Z,6.15
2022-10-18T16:50:25.843Z,5.57
2022-10-18T16:52:52.651Z,6.18
2022-10-18T16:55:24.838Z,6.40
2022-10-18T16:57:52.084Z,6.32
2022-10-18T17:00:21.462Z,5.82
2022-10-18T17:02:49.445Z,5.70
2022-10-18T17:05:17.887Z,5.80
2022-10-18T17:07:46.157Z,5.60
2022-10-18T17:10:15.875Z,5.75
2022-10-18T17:12:42.769Z,5.78
2022-10-18T17:15:10.253Z,5.20
2022-10-18T17:17:37.945Z,5.80
2022-10-18T17:20:07.195Z,5.40
2022-10-18T17:22:36.795Z,5.68
2022-10-18T17:25:03.793Z,5.57
2022-10-18T17:27:30.776Z,6.20
2022-10-18T17:29:57.807Z,6.22
2022-10-18T17:32:24.765Z,6.80
2022-10-18T17:34:51.540Z,5.72
2022-10-18T17:37:18.397Z,6.45
2022-10-18T17:39:45.194Z,6.78
2022-10-18T17:42:11.944Z,7.10
2022-10-18T17:44:38.737Z,7.75
2022-10-18T17:47:05.499Z,8.32
2022-10-18T17:49:32.295Z,6.63
2022-10-18T17:52:01.172Z,7.10
2022-10-18T17:54:31.664Z,6.40
2022-10-18T17:56:58.485Z,6.93
2022-10-18T17:59:25.235Z,6.85
2022-10-18T18:01:52.405Z,6.82
2022-10-18T18:04:19.313Z,6.50
2022-10-18T18:06:48.041Z,6.30
2022-10-18T18:09:16.445Z,6.18
2022-10-18T18:11:44.595Z,6.32
2022-10-18T18:14:11.821Z,5.97
2022-10-18T18:16:41.119Z,6.38
2022-10-18T18:19:09.835Z,5.65
2022-10-18T18:21:37.813Z,6.05
2022-10-18T18:24:04.987Z,5.85
2022-10-18T18:26:33.253Z,5.88
2022-10-18T18:29:00.813Z,6.53
2022-10-18T18:31:30.740Z,5.43
2022-10-18T18:34:01.726Z,6.32
2022-10-18T18:36:29.141Z,7.15
2022-10-18T18:38:57.722Z,6.35
2022-10-18T18:41:25.696Z,7.18
2022-10-18T18:44:04.347Z,7.95
2022-10-18T18:46:36.574Z,6.68
2022-10-18T18:49:04.292Z,6.68
2022-10-18T18:51:33.032Z,6.32
2022-10-18T18:54:00.149Z,6.65
2022-10-18T18:56:28.837Z,7.25
2022-10-18T18:58:56.841Z,7.03
2022-10-18T19:01:25.881Z,6.70
2022-10-18T19:03:54.611Z,6.78
2022-10-18T19:06:42.339Z,6.50
2022-10-18T19:09:26.362Z,6.45
2022-10-18T19:11:55.115Z,6.60
2022-10-18T19:14:25.716Z,6.80
2022-10-18T19:16:54.818Z,7.15
2022-10-18T19:19:26.979Z,7.40
2022-10-18T19:21:56.973Z,8.38
2022-10-18T19:24:25.057Z,7.43
2022-10-18T19:26:56.912Z,7.93
2022-10-18T19:29:36.459Z,8.93
2022-10-18T19:32:10.432Z,7.72
2022-10-18T19:34:37.843Z,8.45
2022-10-18T19:37:06.238Z,8.38
2022-10-18T19:39:35.797Z,8.80
2022-10-18T19:42:05.980Z,8.60
2022-10-18T19:44:36.600Z,9.17
2022-10-18T19:47:06.791Z,8.82
2022-10-18T19:49:34.104Z,8.70
2022-10-18T19:52:01.691Z,8.70
2022-10-18T19:54:29.794Z,9.90
2022-10-18T19:56:57.702Z,9.88
2022-10-18T19:59:25.916Z,10.05
2022-10-18T20:01:53.790Z,8.93
2022-10-18T20:04:22.409Z,8.10
2022-10-18T20:06:49.815Z,10.15
2022-10-18T20:09:19.665Z,8.40
2022-10-18T20:11:47.806Z,8.13
2022-10-18T20:14:14.574Z,9.23
2022-10-18T20:16:41.446Z,8.77
2022-10-18T20:19:08.496Z,8.73
2022-10-18T20:21:36.416Z,7.88
2022-10-18T20:24:04.712Z,7.22
2022-10-18T20:26:31.567Z,6.88
2022-10-18T20:28:59.679Z,7.80
2022-10-18T20:31:30.217Z,7.43
2022-10-18T20:33:59.811Z,7.60
2022-10-18T20:36:27.642Z,8.50
2022-10-18T20:38:54.975Z,7.93
2022-10-18T20:41:26.309Z,8.73
2022-10-18T20:44:14.562Z,8.45
2022-10-18T20:46:41.863Z,8.10
2022-10-18T20:49:12.725Z,8.40
2022-10-18T20:51:39.408Z,7.38
2022-10-18T20:54:07.359Z,6.95
2022-10-18T20:56:36.444Z,7.70
2022-10-18T20:59:06.044Z,7.43
2022-10-18T21:01:34.399Z,8.27
2022-10-18T21:04:03.057Z,8.52
2022-10-18T21:06:35.650Z,8.00
2022-10-18T21:09:08.000Z,7.28
2022-10-18T21:11:36.882Z,7.32
2022-10-18T21:14:04.806Z,6.82
2022-10-18T21:16:33.437Z,6.63
2022-10-18T21:19:10.433Z,6.55
2022-10-18T21:21:37.226Z,7.55
2022-10-18T21:24:07.099Z,6.82
2022-10-18T21:26:34.856Z,7.25
2022-10-18T21:29:01.908Z,7.93
2022-10-18T21:31:37.501Z,7.57
2022-10-18T21:34:06.743Z,6.47
2022-10-18T21:36:36.327Z,6.75
2022-10-18T21:39:05.552Z,6.60
2022-10-18T21:41:32.787Z,6.30
2022-10-18T21:43:59.939Z,5.60
2022-10-18T21:46:26.995Z,6.93
2022-10-18T21:48:56.375Z,7.28
2022-10-18T21:51:25.373Z,6.70
2022-10-18T21:53:54.596Z,5.57
2022-10-18T21:56:32.717Z,6.18
2022-10-18T21:59:00.823Z,7.05
2022-10-18T22:01:33.911Z,6.22
2022-10-18T22:04:02.759Z,6.22
2022-10-18T22:06:32.388Z,5.78
2022-10-18T22:09:04.538Z,7.07
2022-10-18T22:11:36.820Z,6.28
2022-10-18T22:14:03.811Z,6.32
2022-10-18T22:16:30.686Z,5.45
2022-10-18T22:18:59.700Z,6.25
2022-10-18T22:21:26.633Z,5.63
2022-10-18T22:23:56.959Z,4.65
2022-10-18T22:26:29.922Z,6.10
2022-10-18T22:28:59.718Z,5.25
2022-10-18T22:31:35.486Z,5.82
2022-10-18T22:34:08.467Z,5.43
2022-10-18T22:36:35.557Z,5.43
2022-10-18T22:39:03.382Z,5.60
2022-10-18T22:41:30.400Z,4.85
2022-10-18T22:43:59.715Z,5.25
2022-10-18T22:46:29.743Z,6.05
2022-10-18T22:48:56.467Z,5.05
2022-10-18T22:51:23.267Z,4.32
2022-10-18T22:53:50.119Z,4.50
2022-10-18T22:56:20.032Z,4.57
2022-10-18T22:58:48.094Z,4.30
2022-10-18T23:01:17.344Z,4.38
2022-10-18T23:03:44.219Z,4.07
2022-10-18T23:06:25.945Z,4.57
2022-10-18T23:08:54.041Z,4.20
2022-10-18T23:11:20.896Z,4.78
2022-10-18T23:13:47.963Z,4.57
2022-10-18T23:16:15.206Z,4.55
2022-10-18T23:18:41.973Z,4.53
2022-10-18T23:21:13.668Z,4.68
2022-10-18T23:23:42.547Z,4.85
2022-10-18T23:26:12.288Z,5.03
2022-10-18T23:28:41.959Z,4.35
2022-10-18T23:31:10.683Z,3.67
2022-10-18T23:33:37.820Z,4.45
2022-10-18T23:36:06.120Z,3.92
2022-10-18T23:38:33.579Z,4.80
2022-10-18T23:41:00.310Z,3.67
2022-10-18T23:43:27.075Z,3.35
2022-10-18T23:45:53.785Z,3.70
2022-10-18T23:48:20.572Z,3.45
2022-10-18T23:50:47.465Z,3.53
2022-10-18T23:53:14.275Z,3.33
2022-10-18T23:55:52.086Z,3.60
2022-10-18T23:58:18.843Z,3.28
